INFORMAÇÕES METEOROLÓGICAS
METAR FOR SBMG
ADDS - METARS form results

(1735 UTC 20 November 2019)
Data provider http://aviationweather.gov/metar/data/
 
METAR text: SBMG 201700Z 19002KT CAVOK 32/16 Q1013
Conditions at: SBMG (MARINGA , BR) observed 1700 UTC 20 November 2019
Temperature: 32.0°C (90°F)
Dewpoint: 16.0°C (61°F) [RH = 38%]
Pressure (altimeter): 29.91 inches Hg (1013.0 mb)
Winds: from the S (190 degrees) at 2 MPH (2 knots; 1.0 m/s)
Visibility: 6 or more miles (10+ km)
Ceiling: ceiling and visibility are OK
Clouds: unknown
Weather: no significant weather observed at this time

 MAPA DO AEROPORTO

 INFORMAÇÕES DA PISTA
Pista 9 Tamanho da pista 6890 ft Largura da pista 148 ft
Elevação da pista 0 ft Ranhura da pista 0 ft Proa da pista 0
Pista 27 Tamanho da pista 6890 ft Largura da pista 148 ft
Elevação da pista 0 ft Ranhura da pista 0 ft Proa da pista 0

 FREQUÊNCIAS DO AEROPORTO
Tipo AFIS Nome RDO Frequência 131.95 MHZ

 AUXÍLIOS DE NAVEGAÇÃO PRÓXIMOS AO AEROPORTO



Powered by Mercosul Lnhas Aereas